sensor_id;sensor_type;location;lat;lon;timestamp;P1;durP1;ratioP1;P2;durP2;ratioP2
3085;SDS011;52812;48.960;9.108;2023-01-29T00:01:50;7.87;;;5.40;;
3085;SDS011;52812;48.960;9.108;2023-01-29T00:04:16;6.47;;;4.67;;
3085;SDS011;52812;48.960;9.108;2023-01-29T00:06:42;9.07;;;4.97;;
3085;SDS011;52812;48.960;9.108;2023-01-29T00:09:08;11.97;;;5.00;;
3085;SDS011;52812;48.960;9.108;2023-01-29T00:11:34;7.33;;;4.83;;
3085;SDS011;52812;48.960;9.108;2023-01-29T00:14:00;9.50;;;4.93;;
3085;SDS011;52812;48.960;9.108;2023-01-29T00:16:26;6.37;;;5.00;;
3085;SDS011;52812;48.960;9.108;2023-01-29T00:18:51;6.73;;;4.80;;
3085;SDS011;52812;48.960;9.108;2023-01-29T00:21:18;7.50;;;4.50;;
3085;SDS011;52812;48.960;9.108;2023-01-29T00:23:46;8.00;;;4.67;;
3085;SDS011;52812;48.960;9.108;2023-01-29T00:26:12;8.27;;;4.57;;
3085;SDS011;52812;48.960;9.108;2023-01-29T00:28:37;8.43;;;5.10;;
3085;SDS011;52812;48.960;9.108;2023-01-29T00:31:10;8.93;;;4.53;;
3085;SDS011;52812;48.960;9.108;2023-01-29T00:33:40;6.67;;;4.87;;
3085;SDS011;52812;48.960;9.108;2023-01-29T00:36:06;8.07;;;5.07;;
3085;SDS011;52812;48.960;9.108;2023-01-29T00:38:34;8.03;;;5.17;;
3085;SDS011;52812;48.960;9.108;2023-01-29T00:41:07;6.63;;;5.13;;
3085;SDS011;52812;48.960;9.108;2023-01-29T00:43:53;7.83;;;4.60;;
3085;SDS011;52812;48.960;9.108;2023-01-29T00:46:38;7.70;;;4.60;;
3085;SDS011;52812;48.960;9.108;2023-01-29T00:49:04;6.00;;;4.20;;
3085;SDS011;52812;48.960;9.108;2023-01-29T00:51:30;8.40;;;5.00;;
3085;SDS011;52812;48.960;9.108;2023-01-29T00:53:55;8.33;;;5.60;;
3085;SDS011;52812;48.960;9.108;2023-01-29T00:56:25;8.20;;;5.10;;
3085;SDS011;52812;48.960;9.108;2023-01-29T00:58:52;8.10;;;5.30;;
3085;SDS011;52812;48.960;9.108;2023-01-29T01:01:18;7.93;;;5.40;;
3085;SDS011;52812;48.960;9.108;2023-01-29T01:04:03;8.87;;;4.90;;
3085;SDS011;52812;48.960;9.108;2023-01-29T01:06:29;8.10;;;5.10;;
3085;SDS011;52812;48.960;9.108;2023-01-29T01:08:55;7.57;;;4.60;;
3085;SDS011;52812;48.960;9.108;2023-01-29T01:11:39;11.57;;;5.90;;
3085;SDS011;52812;48.960;9.108;2023-01-29T01:14:04;12.33;;;5.63;;
3085;SDS011;52812;48.960;9.108;2023-01-29T01:16:30;8.40;;;5.03;;
3085;SDS011;52812;48.960;9.108;2023-01-29T01:18:55;11.10;;;4.97;;
3085;SDS011;52812;48.960;9.108;2023-01-29T01:21:21;10.30;;;5.70;;
3085;SDS011;52812;48.960;9.108;2023-01-29T01:23:46;7.20;;;5.20;;
3085;SDS011;52812;48.960;9.108;2023-01-29T01:26:12;11.13;;;5.97;;
3085;SDS011;52812;48.960;9.108;2023-01-29T01:28:38;10.73;;;5.50;;
3085;SDS011;52812;48.960;9.108;2023-01-29T01:31:07;9.40;;;5.67;;
3085;SDS011;52812;48.960;9.108;2023-01-29T01:33:34;8.80;;;4.80;;
3085;SDS011;52812;48.960;9.108;2023-01-29T01:36:01;9.40;;;5.20;;
3085;SDS011;52812;48.960;9.108;2023-01-29T01:38:27;7.03;;;5.20;;
3085;SDS011;52812;48.960;9.108;2023-01-29T01:40:53;8.97;;;5.20;;
3085;SDS011;52812;48.960;9.108;2023-01-29T01:43:18;8.00;;;5.23;;
3085;SDS011;52812;48.960;9.108;2023-01-29T01:45:44;9.33;;;5.93;;
3085;SDS011;52812;48.960;9.108;2023-01-29T01:48:31;8.67;;;5.63;;
3085;SDS011;52812;48.960;9.108;2023-01-29T01:50:57;9.00;;;5.23;;
3085;SDS011;52812;48.960;9.108;2023-01-29T01:53:38;8.33;;;5.40;;
3085;SDS011;52812;48.960;9.108;2023-01-29T01:56:08;10.10;;;5.40;;
3085;SDS011;52812;48.960;9.108;2023-01-29T01:58:39;10.03;;;5.03;;
3085;SDS011;52812;48.960;9.108;2023-01-29T02:01:07;9.87;;;5.40;;
3085;SDS011;52812;48.960;9.108;2023-01-29T02:04:17;10.10;;;6.00;;
3085;SDS011;52812;48.960;9.108;2023-01-29T02:06:44;11.70;;;6.63;;
3085;SDS011;52812;48.960;9.108;2023-01-29T02:09:30;8.30;;;5.70;;
3085;SDS011;52812;48.960;9.108;2023-01-29T02:12:10;7.97;;;5.17;;
3085;SDS011;52812;48.960;9.108;2023-01-29T02:14:37;9.07;;;5.80;;
3085;SDS011;52812;48.960;9.108;2023-01-29T02:17:05;8.33;;;5.50;;
3085;SDS011;52812;48.960;9.108;2023-01-29T02:22:35;12.17;;;5.30;;
3085;SDS011;52812;48.960;9.108;2023-01-29T02:30:52;7.97;;;5.00;;
3085;SDS011;52812;48.960;9.108;2023-01-29T02:33:34;8.07;;;4.90;;
3085;SDS011;52812;48.960;9.108;2023-01-29T02:36:19;9.73;;;5.13;;
3085;SDS011;52812;48.960;9.108;2023-01-29T02:39:15;8.60;;;5.00;;
3085;SDS011;52812;48.960;9.108;2023-01-29T02:44:40;8.80;;;4.93;;
3085;SDS011;52812;48.960;9.108;2023-01-29T02:47:17;6.70;;;4.40;;
3085;SDS011;52812;48.960;9.108;2023-01-29T02:52:37;9.63;;;5.30;;
3085;SDS011;52812;48.960;9.108;2023-01-29T02:55:22;8.20;;;5.20;;
3085;SDS011;52812;48.960;9.108;2023-01-29T02:57:58;8.60;;;5.00;;
3085;SDS011;52812;48.960;9.108;2023-01-29T03:00:29;11.43;;;5.90;;
3085;SDS011;52812;48.960;9.108;2023-01-29T03:03:09;9.70;;;5.30;;
3085;SDS011;52812;48.960;9.108;2023-01-29T03:05:59;5.93;;;4.70;;
3085;SDS011;52812;48.960;9.108;2023-01-29T03:08:39;8.30;;;5.30;;
3085;SDS011;52812;48.960;9.108;2023-01-29T03:11:07;9.50;;;5.00;;
3085;SDS011;52812;48.960;9.108;2023-01-29T03:16:32;8.50;;;5.43;;
3085;SDS011;52812;48.960;9.108;2023-01-29T03:19:21;6.70;;;4.80;;
3085;SDS011;52812;48.960;9.108;2023-01-29T03:21:56;8.50;;;5.30;;
3085;SDS011;52812;48.960;9.108;2023-01-29T03:24:33;9.63;;;5.57;;
3085;SDS011;52812;48.960;9.108;2023-01-29T03:27:23;8.50;;;5.03;;
3085;SDS011;52812;48.960;9.108;2023-01-29T03:30:13;9.13;;;5.50;;
3085;SDS011;52812;48.960;9.108;2023-01-29T03:33:01;5.73;;;4.57;;
3085;SDS011;52812;48.960;9.108;2023-01-29T03:35:30;7.13;;;5.17;;
3085;SDS011;52812;48.960;9.108;2023-01-29T03:38:05;8.87;;;5.17;;
3085;SDS011;52812;48.960;9.108;2023-01-29T03:40:35;6.03;;;4.60;;
3085;SDS011;52812;48.960;9.108;2023-01-29T03:43:17;7.70;;;4.90;;
3085;SDS011;52812;48.960;9.108;2023-01-29T03:46:04;9.17;;;5.37;;
3085;SDS011;52812;48.960;9.108;2023-01-29T03:54:20;8.50;;;5.13;;
3085;SDS011;52812;48.960;9.108;2023-01-29T03:59:30;8.90;;;5.20;;
3085;SDS011;52812;48.960;9.108;2023-01-29T04:02:08;9.47;;;6.23;;
3085;SDS011;52812;48.960;9.108;2023-01-29T04:04:38;16.97;;;8.50;;
3085;SDS011;52812;48.960;9.108;2023-01-29T04:12:37;8.13;;;4.60;;
3085;SDS011;52812;48.960;9.108;2023-01-29T04:15:15;6.60;;;4.90;;
3085;SDS011;52812;48.960;9.108;2023-01-29T04:17:44;6.17;;;4.53;;
3085;SDS011;52812;48.960;9.108;2023-01-29T04:20:14;10.97;;;5.27;;
3085;SDS011;52812;48.960;9.108;2023-01-29T04:22:46;8.70;;;5.40;;
3085;SDS011;52812;48.960;9.108;2023-01-29T04:25:21;8.27;;;4.60;;
3085;SDS011;52812;48.960;9.108;2023-01-29T04:38:41;7.73;;;4.70;;
3085;SDS011;52812;48.960;9.108;2023-01-29T04:42:22;8.73;;;5.23;;
3085;SDS011;52812;48.960;9.108;2023-01-29T04:47:24;8.73;;;4.60;;
3085;SDS011;52812;48.960;9.108;2023-01-29T04:50:14;9.65;;;4.57;;
3085;SDS011;52812;48.960;9.108;2023-01-29T04:53:01;6.43;;;4.53;;
3085;SDS011;52812;48.960;9.108;2023-01-29T04:55:32;5.83;;;4.70;;
3085;SDS011;52812;48.960;9.108;2023-01-29T04:58:25;8.03;;;4.93;;
3085;SDS011;52812;48.960;9.108;2023-01-29T05:00:58;6.60;;;4.23;;
3085;SDS011;52812;48.960;9.108;2023-01-29T05:03:26;8.60;;;5.00;;
3085;SDS011;52812;48.960;9.108;2023-01-29T05:05:54;7.47;;;4.83;;
3085;SDS011;52812;48.960;9.108;2023-01-29T05:08:22;6.80;;;4.40;;
3085;SDS011;52812;48.960;9.108;2023-01-29T05:10:50;6.30;;;4.80;;
3085;SDS011;52812;48.960;9.108;2023-01-29T05:13:18;10.70;;;4.83;;
3085;SDS011;52812;48.960;9.108;2023-01-29T05:15:51;7.10;;;4.40;;
3085;SDS011;52812;48.960;9.108;2023-01-29T05:18:40;8.27;;;5.00;;
3085;SDS011;52812;48.960;9.108;2023-01-29T05:21:06;7.53;;;4.83;;
3085;SDS011;52812;48.960;9.108;2023-01-29T05:23:33;9.40;;;5.73;;
3085;SDS011;52812;48.960;9.108;2023-01-29T05:25:59;7.77;;;4.80;;
3085;SDS011;52812;48.960;9.108;2023-01-29T05:28:25;6.77;;;4.00;;
3085;SDS011;52812;48.960;9.108;2023-01-29T05:30:51;8.53;;;5.20;;
3085;SDS011;52812;48.960;9.108;2023-01-29T05:35:51;6.40;;;4.43;;
3085;SDS011;52812;48.960;9.108;2023-01-29T05:38:17;7.50;;;4.87;;
3085;SDS011;52812;48.960;9.108;2023-01-29T05:40:44;7.60;;;4.50;;
3085;SDS011;52812;48.960;9.108;2023-01-29T05:43:14;8.90;;;4.93;;
3085;SDS011;52812;48.960;9.108;2023-01-29T05:45:54;10.03;;;4.90;;
3085;SDS011;52812;48.960;9.108;2023-01-29T05:48:21;9.47;;;4.43;;
3085;SDS011;52812;48.960;9.108;2023-01-29T05:50:48;7.13;;;5.03;;
3085;SDS011;52812;48.960;9.108;2023-01-29T05:53:13;6.80;;;4.43;;
3085;SDS011;52812;48.960;9.108;2023-01-29T05:55:42;7.60;;;4.83;;
3085;SDS011;52812;48.960;9.108;2023-01-29T05:58:09;8.80;;;4.93;;
3085;SDS011;52812;48.960;9.108;2023-01-29T06:00:35;8.10;;;4.70;;
3085;SDS011;52812;48.960;9.108;2023-01-29T06:03:00;8.67;;;5.20;;
3085;SDS011;52812;48.960;9.108;2023-01-29T06:05:26;6.87;;;4.60;;
3085;SDS011;52812;48.960;9.108;2023-01-29T06:07:51;7.70;;;4.83;;
3085;SDS011;52812;48.960;9.108;2023-01-29T06:10:17;9.27;;;5.27;;
3085;SDS011;52812;48.960;9.108;2023-01-29T06:12:43;8.53;;;5.00;;
3085;SDS011;52812;48.960;9.108;2023-01-29T06:15:10;11.40;;;4.97;;
3085;SDS011;52812;48.960;9.108;2023-01-29T06:17:36;11.37;;;6.30;;
3085;SDS011;52812;48.960;9.108;2023-01-29T06:20:02;10.47;;;5.50;;
3085;SDS011;52812;48.960;9.108;2023-01-29T06:22:28;7.63;;;4.90;;
3085;SDS011;52812;48.960;9.108;2023-01-29T06:24:54;6.50;;;5.03;;
3085;SDS011;52812;48.960;9.108;2023-01-29T06:27:20;7.90;;;4.70;;
3085;SDS011;52812;48.960;9.108;2023-01-29T06:29:45;8.33;;;5.10;;
3085;SDS011;52812;48.960;9.108;2023-01-29T06:32:11;9.47;;;4.83;;
3085;SDS011;52812;48.960;9.108;2023-01-29T06:34:36;7.87;;;4.70;;
3085;SDS011;52812;48.960;9.108;2023-01-29T06:37:02;8.13;;;4.93;;
3085;SDS011;52812;48.960;9.108;2023-01-29T06:39:28;9.67;;;5.87;;
3085;SDS011;52812;48.960;9.108;2023-01-29T06:41:53;6.70;;;4.63;;
3085;SDS011;52812;48.960;9.108;2023-01-29T06:44:19;9.97;;;5.43;;
3085;SDS011;52812;48.960;9.108;2023-01-29T06:46:44;9.33;;;5.60;;
3085;SDS011;52812;48.960;9.108;2023-01-29T06:49:10;9.37;;;5.70;;
3085;SDS011;52812;48.960;9.108;2023-01-29T06:51:35;13.03;;;5.50;;
3085;SDS011;52812;48.960;9.108;2023-01-29T06:54:01;9.70;;;5.10;;
3085;SDS011;52812;48.960;9.108;2023-01-29T06:56:27;8.40;;;5.10;;
3085;SDS011;52812;48.960;9.108;2023-01-29T06:58:53;8.57;;;4.50;;
3085;SDS011;52812;48.960;9.108;2023-01-29T07:01:18;10.00;;;5.30;;
3085;SDS011;52812;48.960;9.108;2023-01-29T07:03:44;11.80;;;6.53;;
3085;SDS011;52812;48.960;9.108;2023-01-29T07:06:14;10.20;;;5.75;;
3085;SDS011;52812;48.960;9.108;2023-01-29T07:08:40;8.00;;;5.73;;
3085;SDS011;52812;48.960;9.108;2023-01-29T07:11:05;9.53;;;5.73;;
3085;SDS011;52812;48.960;9.108;2023-01-29T07:13:32;11.50;;;5.77;;
3085;SDS011;52812;48.960;9.108;2023-01-29T07:15:58;7.80;;;5.00;;
3085;SDS011;52812;48.960;9.108;2023-01-29T07:18:28;10.90;;;5.13;;
3085;SDS011;52812;48.960;9.108;2023-01-29T07:20:55;8.17;;;5.20;;
3085;SDS011;52812;48.960;9.108;2023-01-29T07:23:21;10.20;;;5.50;;
3085;SDS011;52812;48.960;9.108;2023-01-29T07:25:47;10.80;;;6.03;;
3085;SDS011;52812;48.960;9.108;2023-01-29T07:28:16;8.10;;;6.07;;
3085;SDS011;52812;48.960;9.108;2023-01-29T07:30:43;8.70;;;5.50;;
3085;SDS011;52812;48.960;9.108;2023-01-29T07:33:09;7.17;;;5.10;;
3085;SDS011;52812;48.960;9.108;2023-01-29T07:35:36;7.60;;;5.20;;
3085;SDS011;52812;48.960;9.108;2023-01-29T07:38:03;6.37;;;4.43;;
3085;SDS011;52812;48.960;9.108;2023-01-29T07:40:28;9.17;;;5.37;;
3085;SDS011;52812;48.960;9.108;2023-01-29T07:42:58;9.07;;;5.30;;
3085;SDS011;52812;48.960;9.108;2023-01-29T07:45:24;6.87;;;5.10;;
3085;SDS011;52812;48.960;9.108;2023-01-29T07:47:53;10.27;;;5.83;;
3085;SDS011;52812;48.960;9.108;2023-01-29T07:50:20;8.80;;;5.30;;
3085;SDS011;52812;48.960;9.108;2023-01-29T07:52:49;7.53;;;5.20;;
3085;SDS011;52812;48.960;9.108;2023-01-29T07:55:15;8.97;;;4.93;;
3085;SDS011;52812;48.960;9.108;2023-01-29T07:57:41;12.90;;;5.70;;
3085;SDS011;52812;48.960;9.108;2023-01-29T08:00:07;9.33;;;5.23;;
3085;SDS011;52812;48.960;9.108;2023-01-29T08:02:34;9.43;;;5.00;;
3085;SDS011;52812;48.960;9.108;2023-01-29T08:04:59;11.07;;;6.57;;
3085;SDS011;52812;48.960;9.108;2023-01-29T08:07:25;11.27;;;6.93;;
3085;SDS011;52812;48.960;9.108;2023-01-29T08:09:50;11.47;;;6.60;;
3085;SDS011;52812;48.960;9.108;2023-01-29T08:12:16;9.37;;;5.63;;
3085;SDS011;52812;48.960;9.108;2023-01-29T08:14:41;8.43;;;6.20;;
3085;SDS011;52812;48.960;9.108;2023-01-29T08:17:07;7.90;;;5.20;;
3085;SDS011;52812;48.960;9.108;2023-01-29T08:19:33;8.80;;;6.03;;
3085;SDS011;52812;48.960;9.108;2023-01-29T08:21:58;10.60;;;5.87;;
3085;SDS011;52812;48.960;9.108;2023-01-29T08:24:24;10.23;;;5.33;;
3085;SDS011;52812;48.960;9.108;2023-01-29T08:26:49;11.50;;;5.80;;
3085;SDS011;52812;48.960;9.108;2023-01-29T08:29:15;9.67;;;5.53;;
3085;SDS011;52812;48.960;9.108;2023-01-29T08:31:40;10.70;;;5.67;;
3085;SDS011;52812;48.960;9.108;2023-01-29T08:34:06;8.13;;;5.30;;
3085;SDS011;52812;48.960;9.108;2023-01-29T08:36:31;7.70;;;5.40;;
3085;SDS011;52812;48.960;9.108;2023-01-29T08:38:58;9.30;;;5.57;;
3085;SDS011;52812;48.960;9.108;2023-01-29T08:41:23;10.60;;;5.57;;
3085;SDS011;52812;48.960;9.108;2023-01-29T08:43:49;9.23;;;5.30;;
3085;SDS011;52812;48.960;9.108;2023-01-29T08:46:15;7.87;;;5.50;;
3085;SDS011;52812;48.960;9.108;2023-01-29T08:48:40;9.50;;;5.90;;
3085;SDS011;52812;48.960;9.108;2023-01-29T08:51:06;7.93;;;5.40;;
3085;SDS011;52812;48.960;9.108;2023-01-29T08:53:31;15.23;;;6.97;;
3085;SDS011;52812;48.960;9.108;2023-01-29T08:55:57;10.47;;;6.03;;
3085;SDS011;52812;48.960;9.108;2023-01-29T08:58:22;10.90;;;5.77;;
3085;SDS011;52812;48.960;9.108;2023-01-29T09:00:48;9.00;;;5.53;;
3085;SDS011;52812;48.960;9.108;2023-01-29T09:03:14;9.47;;;5.43;;
3085;SDS011;52812;48.960;9.108;2023-01-29T09:05:40;9.57;;;6.10;;
3085;SDS011;52812;48.960;9.108;2023-01-29T09:08:06;9.30;;;5.67;;
3085;SDS011;52812;48.960;9.108;2023-01-29T09:10:33;9.60;;;5.57;;
3085;SDS011;52812;48.960;9.108;2023-01-29T09:12:59;9.53;;;5.77;;
3085;SDS011;52812;48.960;9.108;2023-01-29T09:15:24;9.53;;;5.37;;
3085;SDS011;52812;48.960;9.108;2023-01-29T09:17:50;8.40;;;5.60;;
3085;SDS011;52812;48.960;9.108;2023-01-29T09:20:16;9.67;;;5.23;;
3085;SDS011;52812;48.960;9.108;2023-01-29T09:22:43;11.27;;;5.93;;
3085;SDS011;52812;48.960;9.108;2023-01-29T09:25:09;13.23;;;6.07;;
3085;SDS011;52812;48.960;9.108;2023-01-29T09:27:35;7.80;;;5.53;;
3085;SDS011;52812;48.960;9.108;2023-01-29T09:30:01;9.83;;;5.67;;
3085;SDS011;52812;48.960;9.108;2023-01-29T09:32:28;10.50;;;5.60;;
3085;SDS011;52812;48.960;9.108;2023-01-29T09:34:54;6.77;;;5.00;;
3085;SDS011;52812;48.960;9.108;2023-01-29T09:37:20;9.40;;;5.70;;
3085;SDS011;52812;48.960;9.108;2023-01-29T09:39:47;7.13;;;5.10;;
3085;SDS011;52812;48.960;9.108;2023-01-29T09:47:37;8.63;;;5.43;;
3085;SDS011;52812;48.960;9.108;2023-01-29T09:50:14;11.37;;;5.37;;
3085;SDS011;52812;48.960;9.108;2023-01-29T09:52:55;7.43;;;4.90;;
3085;SDS011;52812;48.960;9.108;2023-01-29T09:58:27;11.50;;;6.50;;
3085;SDS011;52812;48.960;9.108;2023-01-29T10:01:07;8.63;;;5.13;;
3085;SDS011;52812;48.960;9.108;2023-01-29T10:06:25;9.27;;;5.60;;
3085;SDS011;52812;48.960;9.108;2023-01-29T10:14:51;8.80;;;5.70;;
3085;SDS011;52812;48.960;9.108;2023-01-29T10:23:32;7.80;;;5.43;;
3085;SDS011;52812;48.960;9.108;2023-01-29T10:26:01;11.20;;;5.60;;
3085;SDS011;52812;48.960;9.108;2023-01-29T10:34:10;7.37;;;5.20;;
3085;SDS011;52812;48.960;9.108;2023-01-29T10:36:40;7.40;;;5.40;;
3085;SDS011;52812;48.960;9.108;2023-01-29T10:39:14;10.37;;;5.83;;
3085;SDS011;52812;48.960;9.108;2023-01-29T10:49:48;9.70;;;6.20;;
3085;SDS011;52812;48.960;9.108;2023-01-29T10:52:49;10.00;;;6.00;;
3085;SDS011;52812;48.960;9.108;2023-01-29T10:58:18;11.50;;;6.70;;
3085;SDS011;52812;48.960;9.108;2023-01-29T11:00:54;10.40;;;6.40;;
3085;SDS011;52812;48.960;9.108;2023-01-29T11:03:24;10.47;;;6.47;;
3085;SDS011;52812;48.960;9.108;2023-01-29T11:12:22;10.40;;;6.60;;
3085;SDS011;52812;48.960;9.108;2023-01-29T11:17:29;11.23;;;7.10;;
3085;SDS011;52812;48.960;9.108;2023-01-29T11:19:55;11.37;;;6.73;;
3085;SDS011;52812;48.960;9.108;2023-01-29T11:22:24;10.50;;;7.13;;
3085;SDS011;52812;48.960;9.108;2023-01-29T11:27:47;11.83;;;7.47;;
3085;SDS011;52812;48.960;9.108;2023-01-29T11:30:22;13.30;;;7.03;;
3085;SDS011;52812;48.960;9.108;2023-01-29T11:33:37;13.70;;;7.50;;
3085;SDS011;52812;48.960;9.108;2023-01-29T11:35:44;11.80;;;6.77;;
3085;SDS011;52812;48.960;9.108;2023-01-29T11:38:23;9.97;;;6.47;;
3085;SDS011;52812;48.960;9.108;2023-01-29T11:40:51;14.83;;;7.83;;
3085;SDS011;52812;48.960;9.108;2023-01-29T11:43:18;10.33;;;6.60;;
3085;SDS011;52812;48.960;9.108;2023-01-29T11:45:47;9.90;;;6.67;;
3085;SDS011;52812;48.960;9.108;2023-01-29T11:48:16;14.20;;;7.13;;
3085;SDS011;52812;48.960;9.108;2023-01-29T11:50:58;11.40;;;6.67;;
3085;SDS011;52812;48.960;9.108;2023-01-29T11:53:41;10.43;;;7.20;;
3085;SDS011;52812;48.960;9.108;2023-01-29T11:56:14;11.03;;;6.60;;
3085;SDS011;52812;48.960;9.108;2023-01-29T11:58:51;10.73;;;6.90;;
3085;SDS011;52812;48.960;9.108;2023-01-29T12:01:23;10.60;;;6.57;;
3085;SDS011;52812;48.960;9.108;2023-01-29T12:04:00;9.80;;;5.77;;
3085;SDS011;52812;48.960;9.108;2023-01-29T12:06:32;11.10;;;6.80;;
3085;SDS011;52812;48.960;9.108;2023-01-29T12:09:01;11.77;;;6.50;;
3085;SDS011;52812;48.960;9.108;2023-01-29T12:11:33;11.93;;;7.00;;
3085;SDS011;52812;48.960;9.108;2023-01-29T12:14:19;11.20;;;6.57;;
3085;SDS011;52812;48.960;9.108;2023-01-29T12:17:11;10.77;;;6.80;;
3085;SDS011;52812;48.960;9.108;2023-01-29T12:19:56;11.67;;;6.77;;
3085;SDS011;52812;48.960;9.108;2023-01-29T12:25:20;11.17;;;7.10;;
3085;SDS011;52812;48.960;9.108;2023-01-29T12:30:45;14.93;;;7.90;;
3085;SDS011;52812;48.960;9.108;2023-01-29T12:33:36;12.10;;;6.97;;
3085;SDS011;52812;48.960;9.108;2023-01-29T12:39:04;13.90;;;7.60;;
3085;SDS011;52812;48.960;9.108;2023-01-29T12:44:50;10.40;;;6.50;;
3085;SDS011;52812;48.960;9.108;2023-01-29T12:47:13;10.93;;;6.83;;
3085;SDS011;52812;48.960;9.108;2023-01-29T12:49:45;11.23;;;6.60;;
3085;SDS011;52812;48.960;9.108;2023-01-29T12:52:41;11.33;;;6.83;;
3085;SDS011;52812;48.960;9.108;2023-01-29T12:55:14;10.13;;;7.00;;
3085;SDS011;52812;48.960;9.108;2023-01-29T12:58:03;13.60;;;7.80;;
3085;SDS011;52812;48.960;9.108;2023-01-29T13:00:39;15.17;;;7.20;;
3085;SDS011;52812;48.960;9.108;2023-01-29T13:05:47;12.20;;;7.07;;
3085;SDS011;52812;48.960;9.108;2023-01-29T13:08:20;13.07;;;7.00;;
3085;SDS011;52812;48.960;9.108;2023-01-29T13:10:51;13.10;;;7.27;;
3085;SDS011;52812;48.960;9.108;2023-01-29T13:13:30;13.70;;;6.97;;
3085;SDS011;52812;48.960;9.108;2023-01-29T13:16:09;13.70;;;7.10;;
3085;SDS011;52812;48.960;9.108;2023-01-29T13:18:42;12.17;;;7.07;;
3085;SDS011;52812;48.960;9.108;2023-01-29T13:21:19;13.23;;;7.50;;
3085;SDS011;52812;48.960;9.108;2023-01-29T13:23:51;13.63;;;7.50;;
3085;SDS011;52812;48.960;9.108;2023-01-29T13:26:20;14.00;;;7.63;;
3085;SDS011;52812;48.960;9.108;2023-01-29T13:28:47;14.10;;;7.80;;
3085;SDS011;52812;48.960;9.108;2023-01-29T13:31:26;14.53;;;7.60;;
3085;SDS011;52812;48.960;9.108;2023-01-29T13:33:55;13.80;;;8.37;;
3085;SDS011;52812;48.960;9.108;2023-01-29T13:36:40;11.97;;;7.83;;
3085;SDS011;52812;48.960;9.108;2023-01-29T13:39:15;15.70;;;9.40;;
3085;SDS011;52812;48.960;9.108;2023-01-29T13:41:44;15.03;;;8.57;;
3085;SDS011;52812;48.960;9.108;2023-01-29T13:44:19;13.00;;;7.60;;
3085;SDS011;52812;48.960;9.108;2023-01-29T13:49:28;11.30;;;6.83;;
3085;SDS011;52812;48.960;9.108;2023-01-29T13:52:23;13.80;;;7.63;;
3085;SDS011;52812;48.960;9.108;2023-01-29T13:55:08;11.67;;;7.13;;
3085;SDS011;52812;48.960;9.108;2023-01-29T14:02:45;12.80;;;7.40;;
3085;SDS011;52812;48.960;9.108;2023-01-29T14:05:41;12.03;;;6.87;;
3085;SDS011;52812;48.960;9.108;2023-01-29T14:13:37;11.50;;;6.80;;
3085;SDS011;52812;48.960;9.108;2023-01-29T14:18:29;13.73;;;7.20;;
3085;SDS011;52812;48.960;9.108;2023-01-29T14:21:01;11.93;;;6.77;;
3085;SDS011;52812;48.960;9.108;2023-01-29T14:26:30;12.73;;;6.80;;
3085;SDS011;52812;48.960;9.108;2023-01-29T14:34:29;12.17;;;7.40;;
3085;SDS011;52812;48.960;9.108;2023-01-29T14:36:59;10.30;;;6.60;;
3085;SDS011;52812;48.960;9.108;2023-01-29T14:40:29;13.77;;;7.23;;
3085;SDS011;52812;48.960;9.108;2023-01-29T14:42:43;10.97;;;6.70;;
3085;SDS011;52812;48.960;9.108;2023-01-29T14:45:32;10.77;;;6.50;;
3085;SDS011;52812;48.960;9.108;2023-01-29T14:48:00;9.60;;;6.50;;
3085;SDS011;52812;48.960;9.108;2023-01-29T14:55:49;10.70;;;6.53;;
3085;SDS011;52812;48.960;9.108;2023-01-29T14:58:27;9.23;;;5.93;;
3085;SDS011;52812;48.960;9.108;2023-01-29T15:01:01;9.40;;;6.10;;
3085;SDS011;52812;48.960;9.108;2023-01-29T15:06:34;11.97;;;6.23;;
3085;SDS011;52812;48.960;9.108;2023-01-29T15:09:17;13.90;;;6.10;;
3085;SDS011;52812;48.960;9.108;2023-01-29T15:15:27;11.90;;;7.00;;
3085;SDS011;52812;48.960;9.108;2023-01-29T15:17:51;14.17;;;6.60;;
3085;SDS011;52812;48.960;9.108;2023-01-29T15:22:53;12.33;;;6.80;;
3085;SDS011;52812;48.960;9.108;2023-01-29T15:25:18;8.50;;;5.60;;
3085;SDS011;52812;48.960;9.108;2023-01-29T15:27:45;10.53;;;6.60;;
3085;SDS011;52812;48.960;9.108;2023-01-29T15:30:16;11.90;;;6.00;;
3085;SDS011;52812;48.960;9.108;2023-01-29T15:32:43;11.93;;;6.87;;
3085;SDS011;52812;48.960;9.108;2023-01-29T15:38:20;13.73;;;6.77;;
3085;SDS011;52812;48.960;9.108;2023-01-29T15:41:01;11.23;;;5.47;;
3085;SDS011;52812;48.960;9.108;2023-01-29T15:43:29;11.83;;;6.10;;
3085;SDS011;52812;48.960;9.108;2023-01-29T15:46:41;10.83;;;6.40;;
3085;SDS011;52812;48.960;9.108;2023-01-29T15:49:04;11.63;;;6.30;;
3085;SDS011;52812;48.960;9.108;2023-01-29T15:51:32;14.30;;;7.57;;
3085;SDS011;52812;48.960;9.108;2023-01-29T15:54:11;17.87;;;8.90;;
3085;SDS011;52812;48.960;9.108;2023-01-29T15:56:40;14.93;;;8.03;;
3085;SDS011;52812;48.960;9.108;2023-01-29T15:59:12;10.50;;;6.80;;
3085;SDS011;52812;48.960;9.108;2023-01-29T16:01:45;13.47;;;7.47;;
3085;SDS011;52812;48.960;9.108;2023-01-29T16:04:12;12.53;;;6.30;;
3085;SDS011;52812;48.960;9.108;2023-01-29T16:06:42;13.10;;;7.50;;
3085;SDS011;52812;48.960;9.108;2023-01-29T16:09:09;10.87;;;6.30;;
3085;SDS011;52812;48.960;9.108;2023-01-29T16:11:41;10.10;;;6.17;;
3085;SDS011;52812;48.960;9.108;2023-01-29T16:14:09;10.20;;;6.50;;
3085;SDS011;52812;48.960;9.108;2023-01-29T16:16:37;10.63;;;5.93;;
3085;SDS011;52812;48.960;9.108;2023-01-29T16:19:11;9.57;;;6.67;;
3085;SDS011;52812;48.960;9.108;2023-01-29T16:21:43;12.80;;;7.00;;
3085;SDS011;52812;48.960;9.108;2023-01-29T16:24:11;13.23;;;8.40;;
3085;SDS011;52812;48.960;9.108;2023-01-29T16:26:44;14.13;;;8.20;;
3085;SDS011;52812;48.960;9.108;2023-01-29T16:29:15;13.47;;;7.50;;
3085;SDS011;52812;48.960;9.108;2023-01-29T16:31:46;11.23;;;6.80;;
3085;SDS011;52812;48.960;9.108;2023-01-29T16:34:17;14.07;;;7.40;;
3085;SDS011;52812;48.960;9.108;2023-01-29T16:36:54;17.57;;;8.73;;
3085;SDS011;52812;48.960;9.108;2023-01-29T16:39:25;17.73;;;9.30;;
3085;SDS011;52812;48.960;9.108;2023-01-29T16:44:44;16.23;;;9.13;;
3085;SDS011;52812;48.960;9.108;2023-01-29T16:47:29;14.10;;;8.33;;
3085;SDS011;52812;48.960;9.108;2023-01-29T16:50:22;15.53;;;8.80;;
3085;SDS011;52812;48.960;9.108;2023-01-29T16:53:02;15.20;;;9.67;;
3085;SDS011;52812;48.960;9.108;2023-01-29T16:55:36;35.53;;;17.77;;
3085;SDS011;52812;48.960;9.108;2023-01-29T16:58:26;49.77;;;22.90;;
3085;SDS011;52812;48.960;9.108;2023-01-29T17:00:52;58.93;;;23.77;;
3085;SDS011;52812;48.960;9.108;2023-01-29T17:03:22;59.50;;;24.87;;
3085;SDS011;52812;48.960;9.108;2023-01-29T17:05:49;64.77;;;26.53;;
3085;SDS011;52812;48.960;9.108;2023-01-29T17:08:21;42.73;;;19.73;;
3085;SDS011;52812;48.960;9.108;2023-01-29T17:10:54;30.87;;;15.77;;
3085;SDS011;52812;48.960;9.108;2023-01-29T17:13:37;28.60;;;15.23;;
3085;SDS011;52812;48.960;9.108;2023-01-29T17:16:22;30.43;;;16.00;;
3085;SDS011;52812;48.960;9.108;2023-01-29T17:18:50;41.23;;;19.70;;
3085;SDS011;52812;48.960;9.108;2023-01-29T17:21:16;40.70;;;18.80;;
3085;SDS011;52812;48.960;9.108;2023-01-29T17:23:42;33.63;;;16.10;;
3085;SDS011;52812;48.960;9.108;2023-01-29T17:26:08;20.70;;;10.93;;
3085;SDS011;52812;48.960;9.108;2023-01-29T17:28:37;19.40;;;10.70;;
3085;SDS011;52812;48.960;9.108;2023-01-29T17:31:03;27.73;;;14.07;;
3085;SDS011;52812;48.960;9.108;2023-01-29T17:33:29;28.67;;;14.07;;
3085;SDS011;52812;48.960;9.108;2023-01-29T17:35:55;19.77;;;11.93;;
3085;SDS011;52812;48.960;9.108;2023-01-29T17:38:20;18.90;;;11.07;;
3085;SDS011;52812;48.960;9.108;2023-01-29T17:40:48;21.07;;;12.37;;
3085;SDS011;52812;48.960;9.108;2023-01-29T17:43:32;24.20;;;12.93;;
3085;SDS011;52812;48.960;9.108;2023-01-29T17:45:58;20.40;;;12.00;;
3085;SDS011;52812;48.960;9.108;2023-01-29T17:48:25;22.77;;;11.93;;
3085;SDS011;52812;48.960;9.108;2023-01-29T17:50:54;21.47;;;11.53;;
3085;SDS011;52812;48.960;9.108;2023-01-29T17:53:21;20.17;;;12.00;;
3085;SDS011;52812;48.960;9.108;2023-01-29T17:55:47;24.40;;;11.90;;
3085;SDS011;52812;48.960;9.108;2023-01-29T17:58:17;19.23;;;10.87;;